createdAt,value
2017-08-24T00:01:01.786Z,16.51
2017-08-24T00:03:29.852Z,16.50
2017-08-24T00:05:57.426Z,16.43
2017-08-24T00:08:25.097Z,16.33
2017-08-24T00:10:52.737Z,16.29
2017-08-24T00:13:20.353Z,16.28
2017-08-24T00:15:47.976Z,16.28
2017-08-24T00:18:15.585Z,16.25
2017-08-24T00:20:44.071Z,16.17
2017-08-24T00:23:12.071Z,16.14
2017-08-24T00:25:39.707Z,16.13
2017-08-24T00:28:09.958Z,16.11
2017-08-24T00:30:37.610Z,16.11
2017-08-24T00:33:05.227Z,16.08
2017-08-24T00:35:32.846Z,16.08
2017-08-24T00:38:00.439Z,16.04
2017-08-24T00:40:28.443Z,16.02
2017-08-24T00:42:56.071Z,15.97
2017-08-24T00:45:23.656Z,15.92
2017-08-24T00:47:51.264Z,15.90
2017-08-24T00:50:19.470Z,15.89
2017-08-24T00:52:47.047Z,15.90
2017-08-24T00:55:14.664Z,15.90
2017-08-24T00:57:42.266Z,15.90
2017-08-24T01:00:09.900Z,15.91
2017-08-24T01:02:37.511Z,15.92
2017-08-24T01:05:05.117Z,15.95
2017-08-24T01:07:34.153Z,15.97
2017-08-24T01:10:01.850Z,15.98
2017-08-24T01:12:29.469Z,15.98
2017-08-24T01:14:57.046Z,15.96
2017-08-24T01:17:24.778Z,15.97
2017-08-24T01:19:52.354Z,15.99
2017-08-24T01:22:19.941Z,15.99
2017-08-24T01:24:47.841Z,15.99
2017-08-24T01:27:15.434Z,15.97
2017-08-24T01:29:43.003Z,15.96
2017-08-24T01:32:11.154Z,15.94
2017-08-24T01:34:38.779Z,15.90
2017-08-24T01:37:06.378Z,15.86
2017-08-24T01:39:33.975Z,15.82
2017-08-24T01:42:01.553Z,15.83
2017-08-24T01:44:29.227Z,15.84
2017-08-24T01:46:56.816Z,15.84
2017-08-24T01:49:24.411Z,15.83
2017-08-24T01:51:52.021Z,15.81
2017-08-24T01:54:19.617Z,15.81
2017-08-24T01:56:47.225Z,15.81
2017-08-24T01:59:14.842Z,15.79
2017-08-24T02:01:42.516Z,15.77
2017-08-24T02:04:10.131Z,15.73
2017-08-24T02:06:37.733Z,15.65
2017-08-24T02:09:05.362Z,15.60
2017-08-24T02:11:33.247Z,15.54
2017-08-24T02:14:00.943Z,15.47
2017-08-24T02:16:28.543Z,15.43
2017-08-24T02:18:56.250Z,15.42
2017-08-24T02:21:23.842Z,15.40
2017-08-24T02:23:51.436Z,15.40
2017-08-24T02:26:19.052Z,15.40
2017-08-24T02:28:47.032Z,15.42
2017-08-24T02:31:14.625Z,15.41
2017-08-24T02:33:42.201Z,15.41
2017-08-24T02:36:09.816Z,15.39
2017-08-24T02:38:37.399Z,15.37
2017-08-24T02:41:05.116Z,15.38
2017-08-24T02:43:32.728Z,15.35
2017-08-24T02:46:00.407Z,15.32
2017-08-24T02:48:28.030Z,15.32
2017-08-24T02:50:55.611Z,15.31
2017-08-24T02:53:23.234Z,15.33
2017-08-24T02:55:51.047Z,15.36
2017-08-24T02:58:18.678Z,15.39
2017-08-24T03:00:46.316Z,15.39
2017-08-24T03:03:13.941Z,15.39
2017-08-24T03:05:41.546Z,15.39
2017-08-24T03:08:09.186Z,15.37
2017-08-24T03:13:19.023Z,15.32
2017-08-24T03:15:46.629Z,15.32
2017-08-24T03:18:14.519Z,15.32
2017-08-24T03:20:42.113Z,15.31
2017-08-24T03:23:09.822Z,15.32
2017-08-24T03:25:37.479Z,15.32
2017-08-24T03:28:05.104Z,15.32
2017-08-24T03:30:32.706Z,15.26
2017-08-24T03:33:00.700Z,15.17
2017-08-24T03:35:28.304Z,15.08
2017-08-24T03:37:55.954Z,15.02
2017-08-24T03:40:23.659Z,15.03
2017-08-24T03:42:51.272Z,15.05
2017-08-24T03:45:18.895Z,15.05
2017-08-24T03:50:23.593Z,15.06
2017-08-24T03:52:51.191Z,15.09
2017-08-24T03:55:19.095Z,15.14
2017-08-24T03:57:46.673Z,15.16
2017-08-24T04:00:14.281Z,15.16
2017-08-24T04:02:42.268Z,15.11
2017-08-24T04:05:09.884Z,15.07
2017-08-24T04:07:37.458Z,15.10
2017-08-24T04:10:05.064Z,15.12
2017-08-24T04:12:32.668Z,15.12
2017-08-24T04:15:00.278Z,15.10
2017-08-24T04:17:27.877Z,15.09
2017-08-24T04:19:55.502Z,15.06
2017-08-24T04:22:23.095Z,15.04
2017-08-24T04:24:51.049Z,15.03
2017-08-24T04:27:18.638Z,15.01
2017-08-24T04:29:46.215Z,15.00
2017-08-24T04:32:13.836Z,14.98
2017-08-24T04:34:41.411Z,14.98
2017-08-24T04:37:09.032Z,14.99
2017-08-24T04:39:36.627Z,15.00
2017-08-24T04:42:04.236Z,15.01
2017-08-24T04:44:31.833Z,15.01
2017-08-24T04:46:59.434Z,15.00
2017-08-24T04:49:27.018Z,14.97
2017-08-24T04:51:55.030Z,14.96
2017-08-24T04:54:22.640Z,15.01
2017-08-24T04:56:50.275Z,15.01
2017-08-24T04:59:18.255Z,15.01
2017-08-24T05:01:45.875Z,15.04
2017-08-24T05:04:13.487Z,15.09
2017-08-24T05:06:41.134Z,15.09
2017-08-24T05:09:08.765Z,15.13
2017-08-24T05:11:36.408Z,15.13
2017-08-24T05:14:04.013Z,15.13
2017-08-24T05:16:31.911Z,15.19
2017-08-24T05:18:59.547Z,15.24
2017-08-24T05:21:27.149Z,15.28
2017-08-24T05:23:54.902Z,15.34
2017-08-24T05:26:23.147Z,15.39
2017-08-24T05:28:50.759Z,15.45
2017-08-24T05:31:18.358Z,15.49
2017-08-24T05:33:45.971Z,15.59
2017-08-24T05:36:13.587Z,15.62
2017-08-24T05:38:41.345Z,15.64
2017-08-24T05:41:09.068Z,15.65
2017-08-24T05:43:37.048Z,15.67
2017-08-24T05:46:04.653Z,15.73
2017-08-24T05:48:32.285Z,15.72
2017-08-24T05:50:59.907Z,15.69
2017-08-24T05:53:27.507Z,15.77
2017-08-24T05:55:55.158Z,15.84
2017-08-24T05:58:22.817Z,15.88
2017-08-24T06:00:50.432Z,15.96
2017-08-24T06:03:18.024Z,16.02
2017-08-24T06:05:45.630Z,16.07
2017-08-24T06:08:13.228Z,16.17
2017-08-24T06:10:40.825Z,16.24
2017-08-24T06:13:09.913Z,16.34
2017-08-24T06:15:37.873Z,16.44
2017-08-24T06:18:05.487Z,16.53
2017-08-24T06:20:33.112Z,16.59
2017-08-24T06:23:00.706Z,16.68
2017-08-24T06:25:28.301Z,16.78
2017-08-24T06:27:55.950Z,16.87
2017-08-24T06:30:23.543Z,16.95
2017-08-24T06:32:51.522Z,16.99
2017-08-24T06:35:19.139Z,17.04
2017-08-24T06:37:46.840Z,17.09
2017-08-24T06:40:14.499Z,17.16
2017-08-24T06:42:43.630Z,17.26
2017-08-24T06:45:11.237Z,17.31
2017-08-24T06:47:38.831Z,17.38
2017-08-24T06:50:06.466Z,17.46
2017-08-24T06:52:34.073Z,17.55
2017-08-24T06:55:01.708Z,17.64
2017-08-24T06:57:29.368Z,17.71
2017-08-24T06:59:57.337Z,17.81
2017-08-24T07:02:24.943Z,17.90
2017-08-24T07:04:52.554Z,17.95
2017-08-24T07:07:20.175Z,18.02
2017-08-24T07:09:47.782Z,18.09
2017-08-24T07:12:15.431Z,18.19
2017-08-24T07:14:43.161Z,18.28
2017-08-24T07:17:10.814Z,18.37
2017-08-24T07:19:38.421Z,18.41
2017-08-24T07:22:06.026Z,18.54
2017-08-24T07:24:33.680Z,18.63
2017-08-24T07:27:01.656Z,18.70
2017-08-24T07:29:29.261Z,18.70
2017-08-24T07:31:56.879Z,18.81
2017-08-24T07:34:24.516Z,18.93
2017-08-24T07:36:52.243Z,19.02
2017-08-24T07:39:19.887Z,19.15
2017-08-24T07:41:49.441Z,19.26
2017-08-24T07:44:17.202Z,19.36
2017-08-24T07:46:44.999Z,19.43
2017-08-24T07:49:12.644Z,19.54
2017-08-24T07:51:40.237Z,19.61
2017-08-24T07:54:07.874Z,19.70
2017-08-24T07:56:35.467Z,19.84
2017-08-24T07:59:03.485Z,19.99
2017-08-24T08:01:31.106Z,20.13
2017-08-24T08:03:58.718Z,20.26
2017-08-24T08:06:26.352Z,20.39
2017-08-24T08:08:53.945Z,20.49
2017-08-24T08:11:21.574Z,20.58
2017-08-24T08:13:49.191Z,20.72
2017-08-24T08:16:16.800Z,20.85
2017-08-24T08:18:44.415Z,20.99
2017-08-24T08:21:12.002Z,21.05
2017-08-24T08:23:39.591Z,21.19
2017-08-24T08:26:07.464Z,21.28
2017-08-24T08:28:35.083Z,21.56
2017-08-24T08:31:03.138Z,21.76
2017-08-24T08:35:57.599Z,21.93
2017-08-24T08:38:25.243Z,21.99
2017-08-24T08:40:52.961Z,22.05
2017-08-24T08:43:20.589Z,22.14
2017-08-24T08:45:48.158Z,22.25
2017-08-24T08:48:15.770Z,22.35
2017-08-24T08:50:43.328Z,22.50
2017-08-24T08:53:11.227Z,22.73
2017-08-24T08:55:38.846Z,22.97
2017-08-24T08:58:06.432Z,23.13
2017-08-24T09:00:34.047Z,23.14
2017-08-24T09:03:01.718Z,23.18
2017-08-24T09:05:29.390Z,23.25
2017-08-24T09:07:56.957Z,23.36
2017-08-24T09:10:24.597Z,23.46
2017-08-24T09:12:52.174Z,23.58
2017-08-24T09:15:20.118Z,23.81
2017-08-24T09:17:47.713Z,23.94
2017-08-24T09:20:15.440Z,23.96
2017-08-24T09:22:43.045Z,24.01
2017-08-24T09:25:10.966Z,24.08
2017-08-24T09:27:38.581Z,24.21
2017-08-24T09:30:06.204Z,24.30
2017-08-24T09:32:33.817Z,24.41
2017-08-24T09:35:01.413Z,24.44
2017-08-24T09:37:29.022Z,24.45
2017-08-24T09:39:56.615Z,24.49
2017-08-24T09:42:24.201Z,24.57
2017-08-24T09:44:51.788Z,24.66
2017-08-24T09:47:19.406Z,24.85
2017-08-24T09:49:46.983Z,25.07
2017-08-24T09:52:14.857Z,25.21
2017-08-24T09:54:42.455Z,25.16
2017-08-24T09:57:10.677Z,25.16
2017-08-24T09:59:38.290Z,25.18
2017-08-24T10:02:05.876Z,25.23
2017-08-24T10:04:33.507Z,25.26
2017-08-24T10:07:01.099Z,25.23
2017-08-24T10:09:28.688Z,25.29
2017-08-24T10:11:56.300Z,25.29
2017-08-24T10:14:23.915Z,25.37
2017-08-24T10:16:51.496Z,25.44
2017-08-24T10:19:19.152Z,25.48
2017-08-24T10:21:46.756Z,25.45
2017-08-24T10:24:14.762Z,25.44
2017-08-24T10:26:42.354Z,25.51
2017-08-24T10:29:10.009Z,25.59
2017-08-24T10:31:37.659Z,25.70
2017-08-24T10:34:05.279Z,25.73
2017-08-24T10:36:32.892Z,25.80
2017-08-24T10:39:00.975Z,25.83
2017-08-24T10:41:28.592Z,25.88
2017-08-24T10:43:56.192Z,25.92
2017-08-24T10:46:23.887Z,25.89
2017-08-24T10:48:51.501Z,26.00
2017-08-24T10:53:52.947Z,26.08
2017-08-24T10:56:20.880Z,26.16
2017-08-24T10:58:48.468Z,26.14
2017-08-24T11:01:16.114Z,26.09
2017-08-24T11:03:43.737Z,26.04
2017-08-24T11:06:11.336Z,26.09
2017-08-24T11:08:39.088Z,26.17
2017-08-24T11:11:06.770Z,26.34
2017-08-24T11:13:34.371Z,26.36
2017-08-24T11:16:01.973Z,26.28
2017-08-24T11:18:29.614Z,26.32
2017-08-24T11:20:57.226Z,26.42
2017-08-24T11:23:24.831Z,26.55
2017-08-24T11:25:52.441Z,26.65
2017-08-24T11:28:20.450Z,26.73
2017-08-24T11:30:48.036Z,26.73
2017-08-24T11:33:15.629Z,26.63
2017-08-24T11:35:43.258Z,26.65
2017-08-24T11:38:10.854Z,26.63
2017-08-24T11:40:38.473Z,26.62
2017-08-24T11:43:06.104Z,26.58
2017-08-24T11:45:33.816Z,26.54
2017-08-24T11:48:01.414Z,26.50
2017-08-24T11:50:29.040Z,26.49
2017-08-24T11:52:56.623Z,26.49
2017-08-24T11:55:24.226Z,26.63
2017-08-24T11:57:51.802Z,26.76
2017-08-24T12:00:19.744Z,26.71
2017-08-24T12:02:47.361Z,26.66
2017-08-24T12:05:14.951Z,26.68
2017-08-24T12:07:42.626Z,26.73
2017-08-24T12:10:10.322Z,26.80
2017-08-24T12:12:37.929Z,26.83
2017-08-24T12:15:05.567Z,26.93
2017-08-24T12:17:33.203Z,27.02
2017-08-24T12:20:00.808Z,27.21
2017-08-24T12:22:28.417Z,27.37
2017-08-24T12:24:56.026Z,27.42
2017-08-24T12:27:24.025Z,27.52
2017-08-24T12:29:51.630Z,27.61
2017-08-24T12:32:19.273Z,27.47
2017-08-24T12:34:46.921Z,27.43
2017-08-24T12:37:14.531Z,27.36
2017-08-24T12:39:42.172Z,27.47
2017-08-24T12:42:09.784Z,27.65
2017-08-24T12:44:37.412Z,27.72
2017-08-24T12:47:04.997Z,27.86
2017-08-24T12:49:32.786Z,27.91
2017-08-24T12:52:00.410Z,27.97
2017-08-24T12:54:28.177Z,27.89
2017-08-24T12:56:55.813Z,28.06
2017-08-24T12:59:23.712Z,28.11
2017-08-24T13:01:51.403Z,28.17
2017-08-24T13:04:18.998Z,28.09
2017-08-24T13:06:46.625Z,28.01
2017-08-24T13:09:14.227Z,28.03
2017-08-24T13:11:41.965Z,27.85
2017-08-24T13:14:09.571Z,27.75
2017-08-24T13:16:37.189Z,27.80
2017-08-24T13:19:04.820Z,27.90
2017-08-24T13:21:32.471Z,28.04
2017-08-24T13:24:00.084Z,28.20
2017-08-24T13:26:28.056Z,28.27
2017-08-24T13:28:55.648Z,28.27
2017-08-24T13:31:23.250Z,28.18
2017-08-24T13:33:50.869Z,28.08
2017-08-24T13:36:18.461Z,28.00
2017-08-24T13:38:46.075Z,28.06
2017-08-24T13:41:13.666Z,28.07
2017-08-24T13:43:41.306Z,28.20
2017-08-24T13:46:09.040Z,28.33
2017-08-24T13:48:36.872Z,28.40
2017-08-24T13:51:11.207Z,28.54
2017-08-24T13:53:39.153Z,28.53
2017-08-24T13:56:06.765Z,28.68
2017-08-24T13:58:34.501Z,28.83
2017-08-24T14:01:02.183Z,28.83
2017-08-24T14:03:29.909Z,28.96
2017-08-24T14:05:57.674Z,29.13
2017-08-24T14:08:32.145Z,29.23
2017-08-24T14:10:59.764Z,29.41
2017-08-24T14:13:27.359Z,29.50
2017-08-24T14:15:56.294Z,29.70
2017-08-24T14:18:23.919Z,29.91
2017-08-24T14:20:51.539Z,29.92
2017-08-24T14:23:19.182Z,30.02
2017-08-24T14:25:46.757Z,30.18
2017-08-24T14:28:14.373Z,30.32
2017-08-24T14:30:41.961Z,30.48
2017-08-24T14:33:09.565Z,30.74
2017-08-24T14:35:37.155Z,31.11
2017-08-24T14:38:04.770Z,31.59
2017-08-24T14:40:32.386Z,31.61
2017-08-24T14:43:00.329Z,31.42
2017-08-24T14:45:27.961Z,31.78
2017-08-24T14:47:55.558Z,31.92
2017-08-24T14:50:23.197Z,32.17
2017-08-24T14:52:50.902Z,32.05
2017-08-24T14:55:18.539Z,31.46
2017-08-24T14:57:46.204Z,31.53
2017-08-24T15:00:13.877Z,31.94
2017-08-24T15:02:41.482Z,32.07
2017-08-24T15:05:09.140Z,32.24
2017-08-24T15:07:36.722Z,32.38
2017-08-24T15:10:04.348Z,32.56
2017-08-24T15:12:31.929Z,32.54
2017-08-24T15:14:59.981Z,32.61
2017-08-24T15:17:27.559Z,32.70
2017-08-24T15:19:55.165Z,32.71
2017-08-24T15:22:22.791Z,32.85
2017-08-24T15:24:50.391Z,32.80
2017-08-24T15:27:17.995Z,32.70
2017-08-24T15:29:45.583Z,32.56
2017-08-24T15:32:13.193Z,32.46
2017-08-24T15:34:40.790Z,32.31
2017-08-24T15:37:08.569Z,32.16
2017-08-24T15:39:36.181Z,32.08
2017-08-24T15:42:03.790Z,31.96
2017-08-24T15:44:31.402Z,32.02
2017-08-24T15:46:59.313Z,31.92
2017-08-24T15:49:26.916Z,31.73
2017-08-24T15:51:54.521Z,31.47
2017-08-24T15:54:22.114Z,31.39
2017-08-24T15:56:49.707Z,31.33
2017-08-24T15:59:17.340Z,31.26
2017-08-24T16:01:44.911Z,31.15
2017-08-24T16:04:12.570Z,30.93
2017-08-24T16:06:40.245Z,30.67
2017-08-24T16:09:07.887Z,30.53
2017-08-24T16:11:35.488Z,30.02
2017-08-24T16:14:03.606Z,29.78
2017-08-24T16:16:31.198Z,29.41
2017-08-24T16:18:58.804Z,29.17
2017-08-24T16:21:26.547Z,29.02
2017-08-24T16:23:54.126Z,28.96
2017-08-24T16:26:21.767Z,28.89
2017-08-24T16:28:49.340Z,28.73
2017-08-24T16:31:17.083Z,28.54
2017-08-24T16:33:44.695Z,28.40
2017-08-24T16:36:12.333Z,28.33
2017-08-24T16:38:39.952Z,28.27
2017-08-24T16:41:07.874Z,28.17
2017-08-24T16:43:35.498Z,28.01
2017-08-24T16:46:03.126Z,27.76
2017-08-24T16:48:30.748Z,27.59
2017-08-24T16:50:58.363Z,27.46
2017-08-24T16:53:26.034Z,27.36
2017-08-24T16:55:53.634Z,27.28
2017-08-24T16:58:21.294Z,27.24
2017-08-24T17:00:48.900Z,27.20
2017-08-24T17:03:16.787Z,27.17
2017-08-24T17:05:44.428Z,27.10
2017-08-24T17:08:12.052Z,27.06
2017-08-24T17:10:39.691Z,27.02
2017-08-24T17:13:07.300Z,26.92
2017-08-24T17:15:35.044Z,26.88
2017-08-24T17:18:02.731Z,26.81
2017-08-24T17:20:30.370Z,26.69
2017-08-24T17:22:58.006Z,26.53
2017-08-24T17:25:25.676Z,26.43
2017-08-24T17:27:53.283Z,26.30
2017-08-24T17:30:21.276Z,26.17
2017-08-24T17:32:48.887Z,26.10
2017-08-24T17:35:16.495Z,26.04
2017-08-24T17:37:44.138Z,26.00
2017-08-24T17:40:11.901Z,25.91
2017-08-24T17:42:39.530Z,25.83
2017-08-24T17:45:07.218Z,25.76
2017-08-24T17:47:34.882Z,25.67
2017-08-24T17:50:02.607Z,25.56
2017-08-24T17:52:30.225Z,25.49
2017-08-24T17:54:58.548Z,25.39
2017-08-24T17:57:26.206Z,25.32
2017-08-24T17:59:53.789Z,25.26
2017-08-24T18:02:21.757Z,25.19
2017-08-24T18:04:49.375Z,25.12
2017-08-24T18:07:17.000Z,25.05
2017-08-24T18:09:44.647Z,25.02
2017-08-24T18:12:12.295Z,24.97
2017-08-24T18:14:40.007Z,24.87
2017-08-24T18:17:07.781Z,24.79
2017-08-24T18:19:35.535Z,24.72
2017-08-24T18:22:03.133Z,24.64
2017-08-24T18:24:30.767Z,24.55
2017-08-24T18:26:58.355Z,24.45
2017-08-24T18:29:25.995Z,24.36
2017-08-24T18:31:53.920Z,24.30
2017-08-24T18:34:21.547Z,24.21
2017-08-24T18:36:49.208Z,24.12
2017-08-24T18:39:16.936Z,24.07
2017-08-24T18:41:44.555Z,24.02
2017-08-24T18:44:12.187Z,23.94
2017-08-24T18:46:39.782Z,23.85
2017-08-24T18:49:07.514Z,23.78
2017-08-24T18:51:35.136Z,23.72
2017-08-24T18:54:03.218Z,23.64
2017-08-24T18:56:30.849Z,23.61
2017-08-24T18:58:58.545Z,23.58
2017-08-24T19:01:26.482Z,23.56
2017-08-24T19:03:54.081Z,23.52
2017-08-24T19:06:21.708Z,23.51
2017-08-24T19:08:49.343Z,23.48
2017-08-24T19:11:16.966Z,23.46
2017-08-24T19:13:44.763Z,23.46
2017-08-24T19:16:12.393Z,23.43
2017-08-24T19:18:40.007Z,23.38
2017-08-24T19:21:07.603Z,23.32
2017-08-24T19:23:35.557Z,23.25
2017-08-24T19:26:03.246Z,23.21
2017-08-24T19:28:30.870Z,23.15
2017-08-24T19:30:58.515Z,23.12
2017-08-24T19:33:26.144Z,23.09
2017-08-24T19:35:53.790Z,23.05
2017-08-24T19:38:21.419Z,22.96
2017-08-24T19:40:49.362Z,22.79
2017-08-24T19:43:16.975Z,22.72
2017-08-24T19:45:44.600Z,22.72
2017-08-24T19:48:12.372Z,22.71
2017-08-24T19:50:40.009Z,22.71
2017-08-24T19:53:07.722Z,22.72
2017-08-24T19:55:35.347Z,22.73
2017-08-24T19:58:02.978Z,22.77
2017-08-24T20:00:31.143Z,22.77
2017-08-24T20:02:59.063Z,22.74
2017-08-24T20:05:26.667Z,22.70
2017-08-24T20:07:55.561Z,22.62
2017-08-24T20:10:23.202Z,22.51
2017-08-24T20:12:50.834Z,22.40
2017-08-24T20:15:18.474Z,22.29
2017-08-24T20:17:46.199Z,22.15
2017-08-24T20:20:13.903Z,22.09
2017-08-24T20:22:41.490Z,22.05
2017-08-24T20:25:09.128Z,22.01
2017-08-24T20:27:36.732Z,21.97
2017-08-24T20:30:04.682Z,21.96
2017-08-24T20:32:32.263Z,21.95
2017-08-24T20:35:00.025Z,21.89
2017-08-24T20:37:27.675Z,21.83
2017-08-24T20:39:55.267Z,21.69
2017-08-24T20:42:22.879Z,21.54
2017-08-24T20:44:50.507Z,21.40
2017-08-24T20:47:18.424Z,21.27
2017-08-24T20:49:46.005Z,21.22
2017-08-24T20:52:13.567Z,21.19
2017-08-24T20:54:41.196Z,21.14
2017-08-24T20:57:08.800Z,21.09
2017-08-24T20:59:36.746Z,21.03
2017-08-24T21:02:04.361Z,21.02
2017-08-24T21:04:32.135Z,20.99
2017-08-24T21:06:59.740Z,20.96
2017-08-24T21:09:27.378Z,20.91
2017-08-24T21:11:55.087Z,20.82
2017-08-24T21:14:22.689Z,20.78
2017-08-24T21:16:50.734Z,20.79
2017-08-24T21:19:18.403Z,20.69
2017-08-24T21:21:45.979Z,20.66
2017-08-24T21:24:13.612Z,20.63
2017-08-24T21:26:41.317Z,20.59
2017-08-24T21:29:09.340Z,20.57
2017-08-24T21:31:36.945Z,20.54
2017-08-24T21:34:04.556Z,20.57
2017-08-24T21:36:32.180Z,20.57
2017-08-24T21:38:59.802Z,20.62
2017-08-24T21:41:27.437Z,20.66
2017-08-24T21:43:55.049Z,20.66
2017-08-24T21:46:22.695Z,20.66
2017-08-24T21:48:50.301Z,20.67
2017-08-24T21:51:18.285Z,20.67
2017-08-24T21:53:46.109Z,20.65
2017-08-24T21:56:13.715Z,20.64
2017-08-24T21:58:41.341Z,20.64
2017-08-24T22:01:08.967Z,20.61
2017-08-24T22:03:36.595Z,20.59
2017-08-24T22:06:04.208Z,20.56
2017-08-24T22:08:31.819Z,20.54
2017-08-24T22:10:59.422Z,20.53
2017-08-24T22:13:27.413Z,20.51
2017-08-24T22:15:55.023Z,20.50
2017-08-24T22:18:22.624Z,20.49
2017-08-24T22:20:50.231Z,20.49
2017-08-24T22:23:17.813Z,20.48
2017-08-24T22:25:45.415Z,20.45
2017-08-24T22:28:13.003Z,20.38
2017-08-24T22:30:40.956Z,20.31
2017-08-24T22:33:08.548Z,20.25
2017-08-24T22:35:36.153Z,20.22
2017-08-24T22:38:03.978Z,20.21
2017-08-24T22:40:31.571Z,20.19
2017-08-24T22:42:59.187Z,20.18
2017-08-24T22:45:26.834Z,20.16
2017-08-24T22:47:54.807Z,20.16
2017-08-24T22:50:22.383Z,20.16
2017-08-24T22:52:50.010Z,20.13
2017-08-24T22:55:23.204Z,20.11
2017-08-24T22:57:56.476Z,20.09
2017-08-24T23:00:29.596Z,20.08
2017-08-24T23:03:02.729Z,20.02
2017-08-24T23:05:30.496Z,19.93
2017-08-24T23:07:58.191Z,19.85
2017-08-24T23:10:25.763Z,19.82
2017-08-24T23:12:53.347Z,19.79
2017-08-24T23:15:20.947Z,19.75
2017-08-24T23:17:48.532Z,19.73
2017-08-24T23:20:16.145Z,19.72
2017-08-24T23:22:43.752Z,19.70
2017-08-24T23:25:11.380Z,19.65
2017-08-24T23:27:38.969Z,19.53
2017-08-24T23:30:06.580Z,19.48
2017-08-24T23:32:34.198Z,19.49
2017-08-24T23:35:01.798Z,19.49
2017-08-24T23:37:29.432Z,19.41
2017-08-24T23:39:57.023Z,19.38
2017-08-24T23:42:24.656Z,19.33
2017-08-24T23:44:52.258Z,19.28
2017-08-24T23:47:19.880Z,19.32
2017-08-24T23:49:47.529Z,19.35
2017-08-24T23:52:15.157Z,19.36
2017-08-24T23:54:42.762Z,19.40
2017-08-24T23:57:10.410Z,19.41
2017-08-24T23:59:37.988Z,19.34
